sensor_id;sensor_type;location;lat;lon;timestamp;P1;durP1;ratioP1;P2;durP2;ratioP2
48727;SDS011;34527;45.618;5.130;2023-04-16T00:01:27;2.45;;;1.90;;
48727;SDS011;34527;45.618;5.130;2023-04-16T00:03:53;3.20;;;2.10;;
48727;SDS011;34527;45.618;5.130;2023-04-16T00:06:19;3.53;;;2.10;;
48727;SDS011;34527;45.618;5.130;2023-04-16T00:08:44;2.65;;;2.10;;
48727;SDS011;34527;45.618;5.130;2023-04-16T00:11:10;2.40;;;2.15;;
48727;SDS011;34527;45.618;5.130;2023-04-16T00:13:36;3.90;;;2.25;;
48727;SDS011;34527;45.618;5.130;2023-04-16T00:16:01;5.15;;;2.15;;
48727;SDS011;34527;45.618;5.130;2023-04-16T00:18:27;2.35;;;1.92;;
48727;SDS011;34527;45.618;5.130;2023-04-16T00:20:52;2.92;;;1.95;;
48727;SDS011;34527;45.618;5.130;2023-04-16T00:23:18;2.70;;;2.10;;
48727;SDS011;34527;45.618;5.130;2023-04-16T00:25:45;3.15;;;1.92;;
48727;SDS011;34527;45.618;5.130;2023-04-16T00:28:10;4.13;;;2.20;;
48727;SDS011;34527;45.618;5.130;2023-04-16T00:30:36;5.15;;;2.13;;
48727;SDS011;34527;45.618;5.130;2023-04-16T00:33:01;2.40;;;2.13;;
48727;SDS011;34527;45.618;5.130;2023-04-16T00:35:28;3.33;;;2.58;;
48727;SDS011;34527;45.618;5.130;2023-04-16T00:37:54;3.40;;;2.97;;
48727;SDS011;34527;45.618;5.130;2023-04-16T00:40:20;4.00;;;2.78;;
48727;SDS011;34527;45.618;5.130;2023-04-16T00:42:45;4.72;;;2.92;;
48727;SDS011;34527;45.618;5.130;2023-04-16T00:45:11;6.18;;;3.03;;
48727;SDS011;34527;45.618;5.130;2023-04-16T00:47:37;4.47;;;3.20;;
48727;SDS011;34527;45.618;5.130;2023-04-16T00:50:03;6.47;;;3.40;;
48727;SDS011;34527;45.618;5.130;2023-04-16T00:52:29;4.45;;;4.05;;
48727;SDS011;34527;45.618;5.130;2023-04-16T00:54:56;4.93;;;4.38;;
48727;SDS011;34527;45.618;5.130;2023-04-16T00:57:23;7.75;;;5.22;;
48727;SDS011;34527;45.618;5.130;2023-04-16T00:59:48;9.90;;;5.80;;
48727;SDS011;34527;45.618;5.130;2023-04-16T01:02:14;7.07;;;5.72;;
48727;SDS011;34527;45.618;5.130;2023-04-16T01:04:40;7.30;;;6.00;;
48727;SDS011;34527;45.618;5.130;2023-04-16T01:07:06;7.60;;;6.38;;
48727;SDS011;34527;45.618;5.130;2023-04-16T01:09:32;11.55;;;7.03;;
48727;SDS011;34527;45.618;5.130;2023-04-16T01:11:57;10.50;;;7.70;;
48727;SDS011;34527;45.618;5.130;2023-04-16T01:14:23;9.05;;;6.88;;
48727;SDS011;34527;45.618;5.130;2023-04-16T01:16:49;9.15;;;7.00;;
48727;SDS011;34527;45.618;5.130;2023-04-16T01:19:14;7.65;;;6.80;;
48727;SDS011;34527;45.618;5.130;2023-04-16T01:21:40;8.90;;;8.00;;
48727;SDS011;34527;45.618;5.130;2023-04-16T01:24:05;9.70;;;7.10;;
48727;SDS011;34527;45.618;5.130;2023-04-16T01:26:31;7.90;;;7.18;;
48727;SDS011;34527;45.618;5.130;2023-04-16T01:28:57;7.72;;;6.95;;
48727;SDS011;34527;45.618;5.130;2023-04-16T01:31:24;11.07;;;7.35;;
48727;SDS011;34527;45.618;5.130;2023-04-16T01:33:50;7.63;;;6.78;;
48727;SDS011;34527;45.618;5.130;2023-04-16T01:36:15;8.15;;;6.20;;
48727;SDS011;34527;45.618;5.130;2023-04-16T01:38:41;6.63;;;5.93;;
48727;SDS011;34527;45.618;5.130;2023-04-16T01:41:07;7.78;;;6.05;;
48727;SDS011;34527;45.618;5.130;2023-04-16T01:43:32;7.80;;;6.43;;
48727;SDS011;34527;45.618;5.130;2023-04-16T01:46:06;7.55;;;6.75;;
48727;SDS011;34527;45.618;5.130;2023-04-16T01:48:41;6.90;;;6.20;;
48727;SDS011;34527;45.618;5.130;2023-04-16T01:51:07;8.88;;;6.32;;
48727;SDS011;34527;45.618;5.130;2023-04-16T01:53:34;7.20;;;6.50;;
48727;SDS011;34527;45.618;5.130;2023-04-16T01:56:00;7.75;;;6.95;;
48727;SDS011;34527;45.618;5.130;2023-04-16T01:58:27;9.75;;;6.80;;
48727;SDS011;34527;45.618;5.130;2023-04-16T02:00:53;11.82;;;8.15;;
48727;SDS011;34527;45.618;5.130;2023-04-16T02:03:19;14.00;;;8.30;;
48727;SDS011;34527;45.618;5.130;2023-04-16T02:05:48;7.93;;;7.13;;
48727;SDS011;34527;45.618;5.130;2023-04-16T02:08:13;10.88;;;7.43;;
48727;SDS011;34527;45.618;5.130;2023-04-16T02:10:39;11.68;;;8.23;;
48727;SDS011;34527;45.618;5.130;2023-04-16T02:13:05;10.25;;;7.97;;
48727;SDS011;34527;45.618;5.130;2023-04-16T02:15:30;11.73;;;9.18;;
48727;SDS011;34527;45.618;5.130;2023-04-16T02:17:56;9.18;;;8.13;;
48727;SDS011;34527;45.618;5.130;2023-04-16T02:20:21;12.15;;;9.32;;
48727;SDS011;34527;45.618;5.130;2023-04-16T02:22:47;10.90;;;8.98;;
48727;SDS011;34527;45.618;5.130;2023-04-16T02:25:13;12.52;;;8.95;;
48727;SDS011;34527;45.618;5.130;2023-04-16T02:27:39;9.77;;;8.88;;
48727;SDS011;34527;45.618;5.130;2023-04-16T02:30:04;11.05;;;8.80;;
48727;SDS011;34527;45.618;5.130;2023-04-16T02:32:31;11.15;;;7.85;;
48727;SDS011;34527;45.618;5.130;2023-04-16T02:34:56;11.70;;;8.88;;
48727;SDS011;34527;45.618;5.130;2023-04-16T02:37:22;11.82;;;9.75;;
48727;SDS011;34527;45.618;5.130;2023-04-16T02:39:49;13.52;;;9.65;;
48727;SDS011;34527;45.618;5.130;2023-04-16T02:42:15;14.45;;;9.38;;
48727;SDS011;34527;45.618;5.130;2023-04-16T02:44:41;13.77;;;9.52;;
48727;SDS011;34527;45.618;5.130;2023-04-16T02:47:06;11.75;;;9.93;;
48727;SDS011;34527;45.618;5.130;2023-04-16T02:49:32;12.82;;;9.82;;
48727;SDS011;34527;45.618;5.130;2023-04-16T02:51:59;13.02;;;10.23;;
48727;SDS011;34527;45.618;5.130;2023-04-16T02:54:25;13.95;;;9.60;;
48727;SDS011;34527;45.618;5.130;2023-04-16T02:56:50;12.95;;;10.70;;
48727;SDS011;34527;45.618;5.130;2023-04-16T02:59:16;13.27;;;10.70;;
48727;SDS011;34527;45.618;5.130;2023-04-16T03:01:41;13.13;;;11.20;;
48727;SDS011;34527;45.618;5.130;2023-04-16T03:04:07;13.30;;;10.85;;
48727;SDS011;34527;45.618;5.130;2023-04-16T03:06:33;14.73;;;10.48;;
48727;SDS011;34527;45.618;5.130;2023-04-16T03:08:58;13.45;;;11.20;;
48727;SDS011;34527;45.618;5.130;2023-04-16T03:11:24;13.75;;;11.27;;
48727;SDS011;34527;45.618;5.130;2023-04-16T03:13:50;15.45;;;10.73;;
48727;SDS011;34527;45.618;5.130;2023-04-16T03:16:15;12.25;;;10.95;;
48727;SDS011;34527;45.618;5.130;2023-04-16T03:18:41;12.10;;;10.88;;
48727;SDS011;34527;45.618;5.130;2023-04-16T03:21:06;15.32;;;11.13;;
48727;SDS011;34527;45.618;5.130;2023-04-16T03:23:32;16.13;;;11.25;;
48727;SDS011;34527;45.618;5.130;2023-04-16T03:25:58;16.48;;;12.00;;
48727;SDS011;34527;45.618;5.130;2023-04-16T03:28:23;15.10;;;11.85;;
48727;SDS011;34527;45.618;5.130;2023-04-16T03:30:50;15.68;;;11.30;;
48727;SDS011;34527;45.618;5.130;2023-04-16T03:33:16;14.25;;;11.25;;
48727;SDS011;34527;45.618;5.130;2023-04-16T03:35:42;13.60;;;10.68;;
48727;SDS011;34527;45.618;5.130;2023-04-16T03:38:08;13.02;;;10.93;;
48727;SDS011;34527;45.618;5.130;2023-04-16T03:40:34;14.13;;;11.05;;
48727;SDS011;34527;45.618;5.130;2023-04-16T03:42:59;15.75;;;10.77;;
48727;SDS011;34527;45.618;5.130;2023-04-16T03:45:25;13.50;;;10.35;;
48727;SDS011;34527;45.618;5.130;2023-04-16T03:47:50;12.82;;;11.43;;
48727;SDS011;34527;45.618;5.130;2023-04-16T03:50:19;15.40;;;11.90;;
48727;SDS011;34527;45.618;5.130;2023-04-16T03:52:45;13.85;;;11.43;;
48727;SDS011;34527;45.618;5.130;2023-04-16T03:55:13;15.93;;;11.13;;
48727;SDS011;34527;45.618;5.130;2023-04-16T03:57:39;16.25;;;11.55;;
48727;SDS011;34527;45.618;5.130;2023-04-16T04:00:05;13.23;;;11.27;;
48727;SDS011;34527;45.618;5.130;2023-04-16T04:02:31;14.27;;;11.57;;
48727;SDS011;34527;45.618;5.130;2023-04-16T04:04:57;19.35;;;11.52;;
48727;SDS011;34527;45.618;5.130;2023-04-16T04:07:22;12.88;;;11.45;;
48727;SDS011;34527;45.618;5.130;2023-04-16T04:09:48;14.50;;;11.32;;
48727;SDS011;34527;45.618;5.130;2023-04-16T04:12:14;17.00;;;12.25;;
48727;SDS011;34527;45.618;5.130;2023-04-16T04:14:39;15.65;;;12.82;;
48727;SDS011;34527;45.618;5.130;2023-04-16T04:17:05;18.42;;;12.30;;
48727;SDS011;34527;45.618;5.130;2023-04-16T04:19:32;17.70;;;13.30;;
48727;SDS011;34527;45.618;5.130;2023-04-16T04:21:58;17.40;;;12.10;;
48727;SDS011;34527;45.618;5.130;2023-04-16T04:24:24;16.17;;;12.18;;
48727;SDS011;34527;45.618;5.130;2023-04-16T04:26:50;14.90;;;12.00;;
48727;SDS011;34527;45.618;5.130;2023-04-16T04:29:15;15.98;;;12.63;;
48727;SDS011;34527;45.618;5.130;2023-04-16T04:31:41;14.88;;;12.07;;
48727;SDS011;34527;45.618;5.130;2023-04-16T04:34:07;16.10;;;12.20;;
48727;SDS011;34527;45.618;5.130;2023-04-16T04:36:32;16.25;;;12.98;;
48727;SDS011;34527;45.618;5.130;2023-04-16T04:38:58;16.08;;;12.38;;
48727;SDS011;34527;45.618;5.130;2023-04-16T04:41:23;15.90;;;13.40;;
48727;SDS011;34527;45.618;5.130;2023-04-16T04:43:50;15.73;;;12.85;;
48727;SDS011;34527;45.618;5.130;2023-04-16T04:46:16;16.45;;;13.38;;
48727;SDS011;34527;45.618;5.130;2023-04-16T04:48:42;16.92;;;13.35;;
48727;SDS011;34527;45.618;5.130;2023-04-16T04:51:07;17.58;;;13.80;;
48727;SDS011;34527;45.618;5.130;2023-04-16T04:53:33;16.38;;;13.02;;
48727;SDS011;34527;45.618;5.130;2023-04-16T04:55:59;17.15;;;13.90;;
48727;SDS011;34527;45.618;5.130;2023-04-16T04:58:24;18.70;;;14.05;;
48727;SDS011;34527;45.618;5.130;2023-04-16T05:00:50;20.45;;;13.73;;
48727;SDS011;34527;45.618;5.130;2023-04-16T05:03:18;15.70;;;12.80;;
48727;SDS011;34527;45.618;5.130;2023-04-16T05:05:45;17.40;;;13.52;;
48727;SDS011;34527;45.618;5.130;2023-04-16T05:08:11;23.90;;;13.90;;
48727;SDS011;34527;45.618;5.130;2023-04-16T05:10:37;17.25;;;14.43;;
48727;SDS011;34527;45.618;5.130;2023-04-16T05:13:02;16.67;;;13.50;;
48727;SDS011;34527;45.618;5.130;2023-04-16T05:15:28;20.60;;;14.40;;
48727;SDS011;34527;45.618;5.130;2023-04-16T05:17:54;17.55;;;14.63;;
48727;SDS011;34527;45.618;5.130;2023-04-16T05:20:22;20.42;;;13.48;;
48727;SDS011;34527;45.618;5.130;2023-04-16T05:22:48;21.10;;;14.57;;
48727;SDS011;34527;45.618;5.130;2023-04-16T05:25:15;18.55;;;14.38;;
48727;SDS011;34527;45.618;5.130;2023-04-16T05:27:41;17.80;;;15.15;;
48727;SDS011;34527;45.618;5.130;2023-04-16T05:30:07;20.70;;;14.52;;
48727;SDS011;34527;45.618;5.130;2023-04-16T05:32:33;21.90;;;15.30;;
48727;SDS011;34527;45.618;5.130;2023-04-16T05:34:59;19.38;;;14.80;;
48727;SDS011;34527;45.618;5.130;2023-04-16T05:37:25;17.67;;;15.05;;
48727;SDS011;34527;45.618;5.130;2023-04-16T05:39:50;19.23;;;15.10;;
48727;SDS011;34527;45.618;5.130;2023-04-16T05:42:16;19.92;;;14.75;;
48727;SDS011;34527;45.618;5.130;2023-04-16T05:44:42;23.70;;;15.68;;
48727;SDS011;34527;45.618;5.130;2023-04-16T05:47:07;21.73;;;16.00;;
48727;SDS011;34527;45.618;5.130;2023-04-16T05:49:33;19.67;;;15.05;;
48727;SDS011;34527;45.618;5.130;2023-04-16T05:52:00;18.95;;;14.93;;
48727;SDS011;34527;45.618;5.130;2023-04-16T05:54:26;20.95;;;15.60;;
48727;SDS011;34527;45.618;5.130;2023-04-16T05:56:52;27.92;;;15.68;;
48727;SDS011;34527;45.618;5.130;2023-04-16T05:59:18;22.58;;;15.63;;
48727;SDS011;34527;45.618;5.130;2023-04-16T06:01:43;21.48;;;15.43;;
48727;SDS011;34527;45.618;5.130;2023-04-16T06:04:09;20.38;;;14.27;;
48727;SDS011;34527;45.618;5.130;2023-04-16T06:06:34;19.38;;;14.45;;
48727;SDS011;34527;45.618;5.130;2023-04-16T06:09:01;19.45;;;14.43;;
48727;SDS011;34527;45.618;5.130;2023-04-16T06:11:28;19.45;;;14.07;;
48727;SDS011;34527;45.618;5.130;2023-04-16T06:13:54;18.73;;;15.38;;
48727;SDS011;34527;45.618;5.130;2023-04-16T06:16:20;19.40;;;13.23;;
48727;SDS011;34527;45.618;5.130;2023-04-16T06:18:45;18.40;;;14.05;;
48727;SDS011;34527;45.618;5.130;2023-04-16T06:21:11;18.48;;;13.98;;
48727;SDS011;34527;45.618;5.130;2023-04-16T06:23:37;18.15;;;14.07;;
48727;SDS011;34527;45.618;5.130;2023-04-16T06:26:03;17.92;;;14.93;;
48727;SDS011;34527;45.618;5.130;2023-04-16T06:28:29;24.65;;;15.48;;
48727;SDS011;34527;45.618;5.130;2023-04-16T06:30:55;23.90;;;15.75;;
48727;SDS011;34527;45.618;5.130;2023-04-16T06:33:20;16.40;;;13.82;;
48727;SDS011;34527;45.618;5.130;2023-04-16T06:35:46;21.98;;;15.55;;
48727;SDS011;34527;45.618;5.130;2023-04-16T06:38:12;20.00;;;14.32;;
48727;SDS011;34527;45.618;5.130;2023-04-16T06:40:37;19.83;;;14.45;;
48727;SDS011;34527;45.618;5.130;2023-04-16T06:43:03;15.80;;;13.35;;
48727;SDS011;34527;45.618;5.130;2023-04-16T06:45:29;19.40;;;13.95;;
48727;SDS011;34527;45.618;5.130;2023-04-16T06:47:55;16.88;;;13.35;;
48727;SDS011;34527;45.618;5.130;2023-04-16T06:50:22;16.40;;;12.98;;
48727;SDS011;34527;45.618;5.130;2023-04-16T06:52:52;17.02;;;12.82;;
48727;SDS011;34527;45.618;5.130;2023-04-16T06:55:18;16.50;;;13.68;;
48727;SDS011;34527;45.618;5.130;2023-04-16T06:57:44;14.90;;;12.15;;
48727;SDS011;34527;45.618;5.130;2023-04-16T07:00:10;15.15;;;13.52;;
48727;SDS011;34527;45.618;5.130;2023-04-16T07:02:36;18.17;;;13.57;;
48727;SDS011;34527;45.618;5.130;2023-04-16T07:05:02;16.73;;;13.48;;
48727;SDS011;34527;45.618;5.130;2023-04-16T07:07:28;15.80;;;13.90;;
48727;SDS011;34527;45.618;5.130;2023-04-16T07:09:53;17.48;;;13.40;;
48727;SDS011;34527;45.618;5.130;2023-04-16T07:12:19;14.82;;;12.63;;
48727;SDS011;34527;45.618;5.130;2023-04-16T07:14:45;17.88;;;14.25;;
48727;SDS011;34527;45.618;5.130;2023-04-16T07:17:11;15.98;;;13.32;;
48727;SDS011;34527;45.618;5.130;2023-04-16T07:19:36;17.85;;;13.38;;
48727;SDS011;34527;45.618;5.130;2023-04-16T07:22:02;19.05;;;13.80;;
48727;SDS011;34527;45.618;5.130;2023-04-16T07:24:28;19.85;;;13.80;;
48727;SDS011;34527;45.618;5.130;2023-04-16T07:26:54;19.00;;;12.98;;
48727;SDS011;34527;45.618;5.130;2023-04-16T07:29:20;18.60;;;14.30;;
48727;SDS011;34527;45.618;5.130;2023-04-16T07:31:45;15.93;;;13.43;;
48727;SDS011;34527;45.618;5.130;2023-04-16T07:34:11;16.85;;;13.55;;
48727;SDS011;34527;45.618;5.130;2023-04-16T07:36:37;19.35;;;13.50;;
48727;SDS011;34527;45.618;5.130;2023-04-16T07:39:03;14.82;;;12.57;;
48727;SDS011;34527;45.618;5.130;2023-04-16T07:41:30;18.08;;;12.70;;
48727;SDS011;34527;45.618;5.130;2023-04-16T07:43:55;13.40;;;11.93;;
48727;SDS011;34527;45.618;5.130;2023-04-16T07:46:21;18.17;;;13.00;;
48727;SDS011;34527;45.618;5.130;2023-04-16T07:48:47;17.33;;;12.63;;
48727;SDS011;34527;45.618;5.130;2023-04-16T07:51:13;15.75;;;12.55;;
48727;SDS011;34527;45.618;5.130;2023-04-16T07:53:39;16.95;;;12.55;;
48727;SDS011;34527;45.618;5.130;2023-04-16T07:56:05;17.85;;;11.68;;
48727;SDS011;34527;45.618;5.130;2023-04-16T07:58:30;17.00;;;12.02;;
48727;SDS011;34527;45.618;5.130;2023-04-16T08:00:56;17.63;;;11.38;;
48727;SDS011;34527;45.618;5.130;2023-04-16T08:03:22;13.27;;;11.15;;
48727;SDS011;34527;45.618;5.130;2023-04-16T08:05:48;13.77;;;10.32;;
48727;SDS011;34527;45.618;5.130;2023-04-16T08:08:14;16.05;;;10.95;;
48727;SDS011;34527;45.618;5.130;2023-04-16T08:10:39;18.13;;;12.18;;
48727;SDS011;34527;45.618;5.130;2023-04-16T08:13:05;14.40;;;11.20;;
48727;SDS011;34527;45.618;5.130;2023-04-16T08:15:30;14.73;;;10.30;;
48727;SDS011;34527;45.618;5.130;2023-04-16T08:17:56;13.48;;;10.85;;
48727;SDS011;34527;45.618;5.130;2023-04-16T08:20:22;14.10;;;10.75;;
48727;SDS011;34527;45.618;5.130;2023-04-16T08:22:47;15.48;;;10.68;;
48727;SDS011;34527;45.618;5.130;2023-04-16T08:25:13;15.75;;;10.75;;
48727;SDS011;34527;45.618;5.130;2023-04-16T08:27:39;14.38;;;10.00;;
48727;SDS011;34527;45.618;5.130;2023-04-16T08:30:05;12.32;;;10.00;;
48727;SDS011;34527;45.618;5.130;2023-04-16T08:32:31;12.15;;;10.05;;
48727;SDS011;34527;45.618;5.130;2023-04-16T08:34:57;13.05;;;10.15;;
48727;SDS011;34527;45.618;5.130;2023-04-16T08:37:23;12.88;;;10.25;;
48727;SDS011;34527;45.618;5.130;2023-04-16T08:39:49;13.02;;;9.60;;
48727;SDS011;34527;45.618;5.130;2023-04-16T08:42:31;11.00;;;9.30;;
48727;SDS011;34527;45.618;5.130;2023-04-16T08:45:17;12.32;;;9.80;;
48727;SDS011;34527;45.618;5.130;2023-04-16T08:47:44;12.52;;;9.27;;
48727;SDS011;34527;45.618;5.130;2023-04-16T08:50:13;10.48;;;9.05;;
48727;SDS011;34527;45.618;5.130;2023-04-16T08:52:53;11.25;;;9.15;;
48727;SDS011;34527;45.618;5.130;2023-04-16T08:55:25;13.95;;;9.13;;
48727;SDS011;34527;45.618;5.130;2023-04-16T08:57:59;10.83;;;8.77;;
48727;SDS011;34527;45.618;5.130;2023-04-16T09:00:27;12.48;;;8.63;;
48727;SDS011;34527;45.618;5.130;2023-04-16T09:02:55;11.25;;;8.30;;
48727;SDS011;34527;45.618;5.130;2023-04-16T09:05:21;10.27;;;8.35;;
48727;SDS011;34527;45.618;5.130;2023-04-16T09:07:49;12.27;;;9.35;;
48727;SDS011;34527;45.618;5.130;2023-04-16T09:10:17;13.32;;;9.23;;
48727;SDS011;34527;45.618;5.130;2023-04-16T09:12:44;14.40;;;9.00;;
48727;SDS011;34527;45.618;5.130;2023-04-16T09:15:10;15.63;;;9.48;;
48727;SDS011;34527;45.618;5.130;2023-04-16T09:17:38;14.05;;;8.98;;
48727;SDS011;34527;45.618;5.130;2023-04-16T09:20:04;10.32;;;9.05;;
48727;SDS011;34527;45.618;5.130;2023-04-16T09:22:33;13.38;;;8.98;;
48727;SDS011;34527;45.618;5.130;2023-04-16T09:24:59;17.00;;;10.18;;
48727;SDS011;34527;45.618;5.130;2023-04-16T09:27:25;13.95;;;9.60;;
48727;SDS011;34527;45.618;5.130;2023-04-16T09:29:51;13.07;;;10.32;;
48727;SDS011;34527;45.618;5.130;2023-04-16T09:32:16;16.65;;;10.00;;
48727;SDS011;34527;45.618;5.130;2023-04-16T09:34:59;12.02;;;9.32;;
48727;SDS011;34527;45.618;5.130;2023-04-16T09:37:26;11.85;;;9.30;;
48727;SDS011;34527;45.618;5.130;2023-04-16T09:39:57;11.32;;;9.35;;
48727;SDS011;34527;45.618;5.130;2023-04-16T09:42:24;15.50;;;9.13;;
48727;SDS011;34527;45.618;5.130;2023-04-16T09:44:55;11.18;;;8.48;;
48727;SDS011;34527;45.618;5.130;2023-04-16T09:47:22;10.55;;;8.60;;
48727;SDS011;34527;45.618;5.130;2023-04-16T09:49:49;10.75;;;8.23;;
48727;SDS011;34527;45.618;5.130;2023-04-16T09:52:16;10.45;;;8.18;;
48727;SDS011;34527;45.618;5.130;2023-04-16T09:54:50;11.27;;;8.13;;
48727;SDS011;34527;45.618;5.130;2023-04-16T09:57:18;9.52;;;7.35;;
48727;SDS011;34527;45.618;5.130;2023-04-16T10:00:08;8.52;;;7.63;;
48727;SDS011;34527;45.618;5.130;2023-04-16T10:02:34;11.10;;;7.95;;
48727;SDS011;34527;45.618;5.130;2023-04-16T10:05:02;9.50;;;8.48;;
48727;SDS011;34527;45.618;5.130;2023-04-16T10:07:30;12.10;;;8.40;;
48727;SDS011;34527;45.618;5.130;2023-04-16T10:09:59;11.60;;;8.57;;
48727;SDS011;34527;45.618;5.130;2023-04-16T10:12:25;12.50;;;8.27;;
48727;SDS011;34527;45.618;5.130;2023-04-16T10:14:53;12.00;;;8.77;;
48727;SDS011;34527;45.618;5.130;2023-04-16T10:17:19;11.63;;;9.18;;
48727;SDS011;34527;45.618;5.130;2023-04-16T10:19:46;12.98;;;8.32;;
48727;SDS011;34527;45.618;5.130;2023-04-16T10:22:12;12.68;;;8.55;;
48727;SDS011;34527;45.618;5.130;2023-04-16T10:24:37;10.70;;;8.77;;
48727;SDS011;34527;45.618;5.130;2023-04-16T10:27:05;12.23;;;9.15;;
48727;SDS011;34527;45.618;5.130;2023-04-16T10:29:30;11.30;;;8.50;;
48727;SDS011;34527;45.618;5.130;2023-04-16T10:31:57;13.98;;;8.70;;
48727;SDS011;34527;45.618;5.130;2023-04-16T10:34:24;10.40;;;8.93;;
48727;SDS011;34527;45.618;5.130;2023-04-16T10:36:51;11.35;;;8.93;;
48727;SDS011;34527;45.618;5.130;2023-04-16T10:39:22;12.10;;;8.85;;
48727;SDS011;34527;45.618;5.130;2023-04-16T10:41:49;10.98;;;8.80;;
48727;SDS011;34527;45.618;5.130;2023-04-16T10:44:16;13.45;;;8.63;;
48727;SDS011;34527;45.618;5.130;2023-04-16T10:46:46;14.85;;;8.68;;
48727;SDS011;34527;45.618;5.130;2023-04-16T10:51:56;12.65;;;8.57;;
48727;SDS011;34527;45.618;5.130;2023-04-16T10:54:23;9.48;;;8.48;;
48727;SDS011;34527;45.618;5.130;2023-04-16T10:56:50;11.82;;;9.27;;
48727;SDS011;34527;45.618;5.130;2023-04-16T10:59:18;11.63;;;9.70;;
48727;SDS011;34527;45.618;5.130;2023-04-16T11:01:45;11.00;;;9.15;;
48727;SDS011;34527;45.618;5.130;2023-04-16T11:07:03;13.07;;;10.48;;
48727;SDS011;34527;45.618;5.130;2023-04-16T11:12:23;15.52;;;10.60;;
48727;SDS011;34527;45.618;5.130;2023-04-16T11:15:14;16.80;;;11.60;;
48727;SDS011;34527;45.618;5.130;2023-04-16T11:17:42;14.77;;;11.95;;
48727;SDS011;34527;45.618;5.130;2023-04-16T11:20:16;16.95;;;11.57;;
48727;SDS011;34527;45.618;5.130;2023-04-16T11:22:49;13.57;;;11.32;;
48727;SDS011;34527;45.618;5.130;2023-04-16T11:25:22;18.13;;;12.00;;
48727;SDS011;34527;45.618;5.130;2023-04-16T11:27:50;14.52;;;11.73;;
48727;SDS011;34527;45.618;5.130;2023-04-16T11:30:16;18.95;;;12.07;;
48727;SDS011;34527;45.618;5.130;2023-04-16T11:32:43;18.35;;;11.80;;
48727;SDS011;34527;45.618;5.130;2023-04-16T11:35:14;17.40;;;12.50;;
48727;SDS011;34527;45.618;5.130;2023-04-16T11:37:43;20.35;;;13.80;;
48727;SDS011;34527;45.618;5.130;2023-04-16T11:40:10;17.60;;;11.23;;
48727;SDS011;34527;45.618;5.130;2023-04-16T11:42:37;21.00;;;12.55;;
48727;SDS011;34527;45.618;5.130;2023-04-16T11:45:09;19.38;;;12.18;;
48727;SDS011;34527;45.618;5.130;2023-04-16T11:47:43;15.80;;;12.15;;
48727;SDS011;34527;45.618;5.130;2023-04-16T11:52:46;14.70;;;12.30;;
48727;SDS011;34527;45.618;5.130;2023-04-16T11:55:12;14.80;;;12.65;;
48727;SDS011;34527;45.618;5.130;2023-04-16T11:57:37;17.13;;;12.50;;
48727;SDS011;34527;45.618;5.130;2023-04-16T12:00:03;18.15;;;12.30;;
48727;SDS011;34527;45.618;5.130;2023-04-16T12:08:06;14.57;;;11.70;;
48727;SDS011;34527;45.618;5.130;2023-04-16T12:10:33;15.27;;;11.50;;
48727;SDS011;34527;45.618;5.130;2023-04-16T12:13:13;16.38;;;11.95;;
48727;SDS011;34527;45.618;5.130;2023-04-16T12:15:47;15.50;;;11.35;;
48727;SDS011;34527;45.618;5.130;2023-04-16T12:18:13;14.10;;;12.07;;
48727;SDS011;34527;45.618;5.130;2023-04-16T12:20:40;16.95;;;12.57;;
48727;SDS011;34527;45.618;5.130;2023-04-16T12:23:06;15.25;;;11.13;;
48727;SDS011;34527;45.618;5.130;2023-04-16T12:25:33;16.00;;;11.80;;
48727;SDS011;34527;45.618;5.130;2023-04-16T12:27:58;16.98;;;12.07;;
48727;SDS011;34527;45.618;5.130;2023-04-16T12:30:24;16.35;;;12.05;;
48727;SDS011;34527;45.618;5.130;2023-04-16T12:35:41;16.77;;;12.98;;
48727;SDS011;34527;45.618;5.130;2023-04-16T12:38:08;16.02;;;11.63;;
48727;SDS011;34527;45.618;5.130;2023-04-16T12:40:34;17.73;;;11.73;;
48727;SDS011;34527;45.618;5.130;2023-04-16T12:43:00;16.50;;;12.68;;
48727;SDS011;34527;45.618;5.130;2023-04-16T12:45:26;16.48;;;11.43;;
48727;SDS011;34527;45.618;5.130;2023-04-16T12:47:52;17.42;;;11.88;;
48727;SDS011;34527;45.618;5.130;2023-04-16T12:50:19;16.00;;;12.13;;
48727;SDS011;34527;45.618;5.130;2023-04-16T12:52:45;18.60;;;12.18;;
48727;SDS011;34527;45.618;5.130;2023-04-16T12:55:11;18.65;;;12.27;;
48727;SDS011;34527;45.618;5.130;2023-04-16T12:57:38;18.98;;;12.65;;
48727;SDS011;34527;45.618;5.130;2023-04-16T13:00:04;17.75;;;11.98;;
48727;SDS011;34527;45.618;5.130;2023-04-16T13:02:30;14.35;;;10.68;;
48727;SDS011;34527;45.618;5.130;2023-04-16T13:04:56;15.63;;;11.45;;
48727;SDS011;34527;45.618;5.130;2023-04-16T13:07:22;16.85;;;11.52;;
48727;SDS011;34527;45.618;5.130;2023-04-16T13:09:50;14.73;;;11.23;;
48727;SDS011;34527;45.618;5.130;2023-04-16T13:12:16;14.25;;;11.05;;
48727;SDS011;34527;45.618;5.130;2023-04-16T13:14:41;17.98;;;11.43;;
48727;SDS011;34527;45.618;5.130;2023-04-16T13:17:07;16.67;;;10.93;;
48727;SDS011;34527;45.618;5.130;2023-04-16T13:19:33;12.82;;;10.80;;
48727;SDS011;34527;45.618;5.130;2023-04-16T13:21:58;16.50;;;11.48;;
48727;SDS011;34527;45.618;5.130;2023-04-16T13:24:24;15.32;;;11.35;;
48727;SDS011;34527;45.618;5.130;2023-04-16T13:26:50;14.85;;;11.43;;
48727;SDS011;34527;45.618;5.130;2023-04-16T13:29:20;17.08;;;12.32;;
48727;SDS011;34527;45.618;5.130;2023-04-16T13:31:46;13.30;;;10.80;;
48727;SDS011;34527;45.618;5.130;2023-04-16T13:34:12;16.35;;;12.02;;
48727;SDS011;34527;45.618;5.130;2023-04-16T13:36:38;18.48;;;12.25;;
48727;SDS011;34527;45.618;5.130;2023-04-16T13:39:04;14.57;;;11.57;;
48727;SDS011;34527;45.618;5.130;2023-04-16T13:41:34;17.42;;;11.88;;
48727;SDS011;34527;45.618;5.130;2023-04-16T13:44:00;16.83;;;12.15;;
48727;SDS011;34527;45.618;5.130;2023-04-16T13:46:26;16.77;;;12.60;;
48727;SDS011;34527;45.618;5.130;2023-04-16T13:48:52;15.48;;;12.02;;
48727;SDS011;34527;45.618;5.130;2023-04-16T13:51:18;19.05;;;11.93;;
48727;SDS011;34527;45.618;5.130;2023-04-16T13:53:44;16.63;;;12.60;;
48727;SDS011;34527;45.618;5.130;2023-04-16T13:56:10;17.00;;;12.60;;
48727;SDS011;34527;45.618;5.130;2023-04-16T13:58:36;16.10;;;12.13;;
48727;SDS011;34527;45.618;5.130;2023-04-16T14:01:02;19.50;;;13.20;;
48727;SDS011;34527;45.618;5.130;2023-04-16T14:03:27;16.58;;;12.63;;
48727;SDS011;34527;45.618;5.130;2023-04-16T14:05:53;17.98;;;12.55;;
48727;SDS011;34527;45.618;5.130;2023-04-16T14:08:19;16.50;;;12.05;;
48727;SDS011;34527;45.618;5.130;2023-04-16T14:10:45;19.00;;;13.32;;
48727;SDS011;34527;45.618;5.130;2023-04-16T14:13:11;18.40;;;13.48;;
48727;SDS011;34527;45.618;5.130;2023-04-16T14:15:37;17.83;;;13.38;;
48727;SDS011;34527;45.618;5.130;2023-04-16T14:18:03;18.48;;;13.38;;
48727;SDS011;34527;45.618;5.130;2023-04-16T14:20:28;18.15;;;12.85;;
48727;SDS011;34527;45.618;5.130;2023-04-16T14:22:54;18.05;;;13.32;;
48727;SDS011;34527;45.618;5.130;2023-04-16T14:25:21;20.40;;;14.05;;
48727;SDS011;34527;45.618;5.130;2023-04-16T14:27:47;20.80;;;13.68;;
48727;SDS011;34527;45.618;5.130;2023-04-16T14:30:12;19.08;;;14.13;;
48727;SDS011;34527;45.618;5.130;2023-04-16T14:32:38;24.52;;;14.38;;
48727;SDS011;34527;45.618;5.130;2023-04-16T14:35:04;20.67;;;14.80;;
48727;SDS011;34527;45.618;5.130;2023-04-16T14:37:30;23.48;;;14.80;;
48727;SDS011;34527;45.618;5.130;2023-04-16T14:39:56;22.52;;;14.45;;
48727;SDS011;34527;45.618;5.130;2023-04-16T14:42:22;21.95;;;14.75;;
48727;SDS011;34527;45.618;5.130;2023-04-16T14:44:47;21.45;;;15.40;;